Time;durP1;ratioP1;P1;durP2;ratioP2;P2;SDS_P1;SDS_P2;PMS_P1;PMS_P2;Temp;Humidity;BMP_temperature;BMP_pressure;BME280_temperature;BME280_humidity;BME280_pressure;Samples;Min_cycle;Max_cycle;Signal;HPM_P1;HPM_P2
2024/01/27 00:00:09;;;;;;;44.67;5.63;;;2.90;99.90;;;;;;6312119;22;20014;-45
2024/01/27 00:02:35;;;;;;;31.45;3.00;;;2.90;99.90;;;;;;6287349;22;20376;-44
2024/01/27 00:05:02;;;;;;;28.40;4.05;;;2.90;99.90;;;;;;6312035;22;20507;-44
2024/01/27 00:07:28;;;;;;;30.40;4.40;;;2.70;99.90;;;;;;6311993;22;20442;-44
2024/01/27 00:09:55;;;;;;;33.72;5.22;;;2.70;99.90;;;;;;6341090;22;20015;-44
2024/01/27 00:12:21;;;;;;;27.38;3.95;;;2.80;99.90;;;;;;6311939;22;20030;-45
2024/01/27 00:14:46;;;;;;;22.52;2.92;;;2.90;99.90;;;;;;6339638;22;20011;-45
2024/01/27 00:17:12;;;;;;;26.95;3.97;;;2.90;99.90;;;;;;6339596;22;20019;-44
2024/01/27 00:19:38;;;;;;;34.33;4.57;;;3.00;99.90;;;;;;6312123;22;20064;-44
2024/01/27 00:22:04;;;;;;;36.08;5.55;;;3.00;99.90;;;;;;6340141;22;20015;-44
2024/01/27 00:24:29;;;;;;;23.50;3.30;;;3.00;99.90;;;;;;6339874;22;20030;-44
2024/01/27 00:26:55;;;;;;;25.15;3.45;;;3.10;99.90;;;;;;6339560;22;20450;-44
2024/01/27 00:29:21;;;;;;;24.48;4.90;;;3.00;99.90;;;;;;6339528;22;20011;-45
2024/01/27 00:31:47;;;;;;;28.17;4.53;;;3.20;99.90;;;;;;6339474;22;20107;-45
2024/01/27 00:34:12;;;;;;;24.42;4.32;;;3.20;99.90;;;;;;6312571;22;20019;-44
2024/01/27 00:36:38;;;;;;;35.20;4.82;;;3.30;99.90;;;;;;6287142;22;20042;-45
2024/01/27 00:39:04;;;;;;;25.83;3.58;;;3.30;99.90;;;;;;6339816;22;20434;-44
2024/01/27 00:41:30;;;;;;;21.20;3.22;;;3.10;99.90;;;;;;6311155;22;20019;-44
2024/01/27 00:43:56;;;;;;;19.05;3.72;;;2.90;99.90;;;;;;6312053;22;20056;-45
2024/01/27 00:46:21;;;;;;;28.17;4.43;;;2.90;99.90;;;;;;6339335;22;20022;-44
2024/01/27 00:48:47;;;;;;;36.55;5.32;;;2.90;99.90;;;;;;6339384;22;20022;-44
2024/01/27 00:51:13;;;;;;;33.33;5.10;;;2.80;99.90;;;;;;6339409;22;20015;-44
2024/01/27 00:53:39;;;;;;;28.42;4.22;;;2.90;99.90;;;;;;6285932;22;20015;-44
2024/01/27 00:56:05;;;;;;;30.88;5.68;;;2.80;99.90;;;;;;6286486;22;20018;-44
2024/01/27 00:58:31;;;;;;;28.08;3.85;;;2.80;99.90;;;;;;6312694;22;20019;-45
2024/01/27 01:00:58;;;;;;;45.85;6.75;;;2.80;99.90;;;;;;6339334;22;20026;-45
2024/01/27 01:03:24;;;;;;;29.73;4.88;;;2.70;99.90;;;;;;6288043;22;20385;-45
2024/01/27 01:05:50;;;;;;;25.67;3.13;;;2.80;99.90;;;;;;6341301;22;20027;-45
2024/01/27 01:08:15;;;;;;;31.17;7.35;;;2.70;99.90;;;;;;6341320;22;20027;-44
2024/01/27 01:10:41;;;;;;;23.08;3.95;;;2.80;99.90;;;;;;6342298;22;20037;-45
2024/01/27 01:13:07;;;;;;;26.17;3.78;;;2.80;99.90;;;;;;6341877;22;20058;-44
2024/01/27 01:15:33;;;;;;;36.13;4.75;;;2.80;99.90;;;;;;6314724;22;20019;-44
2024/01/27 01:17:58;;;;;;;23.75;4.10;;;2.80;99.90;;;;;;6313802;22;20015;-45
2024/01/27 01:20:26;;;;;;;32.83;6.20;;;2.80;99.90;;;;;;6341162;22;20097;-44
2024/01/27 01:22:52;;;;;;;38.30;3.40;;;2.80;99.90;;;;;;6313587;22;20370;-44
2024/01/27 01:25:18;;;;;;;23.40;3.65;;;2.80;99.90;;;;;;6341463;22;20011;-44
2024/01/27 01:27:45;;;;;;;32.40;4.72;;;2.80;99.90;;;;;;6341022;22;20068;-45
2024/01/27 01:30:11;;;;;;;37.72;3.67;;;2.70;99.90;;;;;;6341356;22;20015;-44
2024/01/27 01:32:37;;;;;;;36.17;4.88;;;2.80;99.90;;;;;;6313652;22;20029;-44
2024/01/27 01:35:03;;;;;;;27.95;3.72;;;2.80;99.90;;;;;;6313537;22;20015;-44
2024/01/27 01:37:29;;;;;;;28.13;4.03;;;2.80;99.90;;;;;;6341019;22;20076;-45
2024/01/27 01:39:55;;;;;;;18.65;3.80;;;2.80;99.90;;;;;;6340950;22;20018;-44
2024/01/27 01:42:24;;;;;;;24.23;3.50;;;2.90;99.90;;;;;;6340902;22;20057;-44
2024/01/27 01:44:51;;;;;;;27.90;3.80;;;2.90;99.90;;;;;;6341911;22;20062;-45
2024/01/27 01:47:17;;;;;;;20.50;3.25;;;2.90;99.90;;;;;;6313455;22;20021;-44
2024/01/27 01:49:43;;;;;;;20.40;3.40;;;2.90;99.90;;;;;;6288530;22;20023;-44
2024/01/27 01:52:10;;;;;;;22.77;3.72;;;2.80;99.90;;;;;;6340879;22;20326;-44
2024/01/27 01:54:36;;;;;;;27.27;3.28;;;2.80;99.90;;;;;;6340785;22;20386;-44
2024/01/27 01:57:03;;;;;;;27.42;5.13;;;2.80;99.90;;;;;;6314532;22;20019;-45
2024/01/27 01:59:29;;;;;;;27.95;4.00;;;2.70;99.90;;;;;;6340740;22;20010;-44
2024/01/27 02:01:54;;;;;;;18.02;3.22;;;2.60;99.90;;;;;;6341737;22;20088;-44
2024/01/27 02:04:20;;;;;;;27.00;3.70;;;2.60;99.90;;;;;;6340596;22;20311;-44
2024/01/27 02:06:46;;;;;;;23.55;3.88;;;2.60;99.90;;;;;;6341332;22;20295;-44
2024/01/27 02:09:12;;;;;;;24.27;3.92;;;2.50;99.90;;;;;;6340648;22;20097;-45
2024/01/27 02:11:38;;;;;;;25.55;4.90;;;2.50;99.90;;;;;;6287546;22;20022;-45
2024/01/27 02:14:04;;;;;;;26.95;3.47;;;2.70;99.90;;;;;;6312827;22;20015;-45
2024/01/27 02:16:30;;;;;;;29.83;3.50;;;2.60;99.90;;;;;;6340609;22;20058;-44
2024/01/27 02:18:56;;;;;;;21.50;4.20;;;2.50;99.90;;;;;;6313206;22;20145;-44
2024/01/27 02:21:21;;;;;;;25.35;3.88;;;2.50;99.90;;;;;;6340604;22;20034;-44
2024/01/27 02:23:47;;;;;;;15.27;2.38;;;2.50;99.90;;;;;;6312937;22;20018;-45
2024/01/27 02:26:13;;;;;;;27.20;3.95;;;2.40;99.90;;;;;;6313489;22;20461;-44
2024/01/27 02:28:38;;;;;;;22.50;2.80;;;2.40;99.90;;;;;;6288287;22;20382;-44
2024/01/27 02:31:04;;;;;;;16.30;2.92;;;2.30;99.90;;;;;;6340496;22;20037;-45
2024/01/27 02:33:30;;;;;;;21.95;4.25;;;2.40;99.90;;;;;;6340784;22;20097;-44
2024/01/27 02:35:56;;;;;;;27.35;2.85;;;2.60;99.90;;;;;;6340401;22;20046;-44
2024/01/27 02:38:21;;;;;;;18.63;2.88;;;2.70;99.90;;;;;;6341176;22;20034;-44
2024/01/27 02:40:47;;;;;;;17.90;3.03;;;2.70;99.90;;;;;;6340651;22;20018;-45
2024/01/27 02:43:13;;;;;;;13.80;2.80;;;3.00;99.90;;;;;;6311354;22;20405;-44
2024/01/27 02:45:38;;;;;;;26.70;4.07;;;2.80;99.90;;;;;;6312317;22;20064;-45
2024/01/27 02:48:04;;;;;;;28.65;4.07;;;2.80;99.90;;;;;;6339719;22;20360;-44
2024/01/27 02:50:30;;;;;;;23.63;3.25;;;2.80;99.90;;;;;;6339479;22;20474;-44
2024/01/27 02:52:56;;;;;;;27.88;3.38;;;2.90;99.90;;;;;;6311232;22;20007;-44
2024/01/27 02:55:21;;;;;;;22.85;3.80;;;2.80;99.90;;;;;;6338802;22;20076;-44
2024/01/27 02:57:47;;;;;;;25.17;3.80;;;2.70;99.90;;;;;;6310644;22;20022;-44
2024/01/27 03:00:13;;;;;;;25.38;4.10;;;2.70;99.90;;;;;;6286429;22;20019;-44
2024/01/27 03:02:39;;;;;;;23.17;3.17;;;2.80;99.90;;;;;;6285354;22;20373;-44
2024/01/27 03:05:05;;;;;;;24.05;3.97;;;2.80;99.90;;;;;;6285472;22;20054;-44
2024/01/27 03:07:30;;;;;;;16.60;2.97;;;2.80;99.90;;;;;;6338695;22;20018;-44
2024/01/27 03:09:56;;;;;;;20.02;4.03;;;2.90;99.90;;;;;;6339350;22;20098;-44
2024/01/27 03:12:22;;;;;;;18.40;3.45;;;2.90;99.90;;;;;;6339294;22;20018;-43
2024/01/27 03:14:49;;;;;;;19.92;4.07;;;3.00;99.90;;;;;;6338629;22;20018;-45
2024/01/27 03:17:15;;;;;;;27.38;3.50;;;3.00;99.90;;;;;;6338698;22;20026;-45
2024/01/27 03:19:41;;;;;;;23.08;4.07;;;3.00;99.90;;;;;;6311183;22;20068;-42
2024/01/27 03:22:07;;;;;;;25.15;4.05;;;2.90;99.90;;;;;;6311955;22;20019;-41
2024/01/27 03:24:32;;;;;;;24.70;3.67;;;2.90;99.90;;;;;;6338340;22;20018;-42
2024/01/27 03:26:58;;;;;;;32.15;3.83;;;2.90;99.90;;;;;;6339333;22;20116;-42
2024/01/27 03:29:24;;;;;;;28.80;4.75;;;2.90;99.90;;;;;;6338583;22;20044;-42
2024/01/27 03:31:50;;;;;;;18.30;2.75;;;2.80;99.90;;;;;;6311105;22;20331;-42
2024/01/27 03:34:17;;;;;;;26.70;3.67;;;2.90;99.90;;;;;;6310722;22;20450;-42
2024/01/27 03:36:43;;;;;;;30.15;3.70;;;2.90;99.90;;;;;;6338560;22;20019;-42
2024/01/27 03:39:12;;;;;;;23.60;2.83;;;2.90;99.90;;;;;;6311448;22;20049;-41
2024/01/27 03:41:37;;;;;;;27.85;3.85;;;2.70;99.90;;;;;;6262817;22;1105153;-42
2024/01/27 03:44:03;;;;;;;24.88;3.70;;;2.70;99.90;;;;;;6313189;22;20018;-42
2024/01/27 03:46:29;;;;;;;18.25;2.78;;;2.90;99.90;;;;;;6261279;22;20072;-41
2024/01/27 03:48:54;;;;;;;28.88;3.67;;;2.80;99.90;;;;;;6313158;22;20014;-43
2024/01/27 03:51:20;;;;;;;26.48;3.45;;;2.80;99.90;;;;;;6339795;22;20434;-41
2024/01/27 03:53:46;;;;;;;21.67;3.33;;;2.80;99.90;;;;;;6312346;22;20029;-42
2024/01/27 03:56:12;;;;;;;25.25;3.78;;;3.00;99.90;;;;;;6339718;22;20018;-41
2024/01/27 03:58:38;;;;;;;24.95;3.33;;;2.60;99.90;;;;;;6340445;22;20050;-42
2024/01/27 04:01:04;;;;;;;26.52;3.83;;;2.60;99.90;;;;;;6286577;22;20019;-42
2024/01/27 04:03:30;;;;;;;21.38;3.35;;;2.60;99.90;;;;;;6312432;22;20019;-42
2024/01/27 04:05:56;;;;;;;26.55;4.03;;;2.70;99.90;;;;;;6286302;22;20373;-42
2024/01/27 04:08:21;;;;;;;24.25;3.75;;;2.80;99.90;;;;;;6340669;22;20486;-42
2024/01/27 04:10:47;;;;;;;25.27;4.57;;;2.80;99.90;;;;;;6339740;22;20477;-42
2024/01/27 04:13:13;;;;;;;28.10;3.67;;;2.80;99.90;;;;;;6339611;22;20040;-42
2024/01/27 04:15:39;;;;;;;24.40;4.00;;;2.80;99.90;;;;;;6339684;22;20100;-42
2024/01/27 04:18:07;;;;;;;21.95;2.88;;;3.00;99.90;;;;;;6339648;22;20018;-42
2024/01/27 04:20:33;;;;;;;25.60;4.55;;;2.70;99.90;;;;;;6339886;22;20068;-41
2024/01/27 04:22:59;;;;;;;22.95;3.20;;;2.80;99.90;;;;;;6312026;22;20430;-42
2024/01/27 04:25:25;;;;;;;30.75;5.00;;;2.70;99.90;;;;;;6311929;22;20021;-42
2024/01/27 04:27:50;;;;;;;27.55;4.00;;;2.80;99.90;;;;;;6286221;22;20015;-42
2024/01/27 04:30:16;;;;;;;23.02;2.78;;;2.70;99.90;;;;;;6311798;22;20014;-42
2024/01/27 04:32:42;;;;;;;29.50;2.95;;;2.50;99.90;;;;;;6312718;22;20050;-42
2024/01/27 04:35:11;;;;;;;27.77;4.75;;;2.50;99.90;;;;;;6340135;22;20105;-42
2024/01/27 04:37:38;;;;;;;22.45;3.33;;;2.50;99.90;;;;;;6339549;22;20089;-42
2024/01/27 04:40:07;;;;;;;23.67;3.30;;;2.50;99.90;;;;;;6339579;22;20022;-42
2024/01/27 04:42:34;;;;;;;13.75;1.98;;;2.50;99.90;;;;;;6338785;22;20335;-42
2024/01/27 04:45:00;;;;;;;25.42;4.47;;;2.50;99.90;;;;;;6312654;22;20196;-42
2024/01/27 04:47:25;;;;;;;23.90;4.43;;;2.50;99.90;;;;;;6311784;22;20063;-42
2024/01/27 04:49:51;;;;;;;30.30;4.75;;;2.60;99.90;;;;;;6311683;22;20050;-42
2024/01/27 04:52:17;;;;;;;24.00;3.47;;;2.70;99.90;;;;;;6339396;22;20161;-42
2024/01/27 04:54:43;;;;;;;20.52;2.85;;;2.80;99.90;;;;;;6339418;22;20011;-42
2024/01/27 04:57:09;;;;;;;23.60;3.25;;;2.90;99.90;;;;;;6340102;22;20126;-41
2024/01/27 04:59:35;;;;;;;27.35;3.47;;;2.70;99.90;;;;;;6340012;22;20018;-42
2024/01/27 05:02:01;;;;;;;16.15;3.22;;;2.70;99.90;;;;;;6339322;22;20034;-42
2024/01/27 05:04:27;;;;;;;17.70;2.83;;;2.70;99.90;;;;;;6339277;22;20090;-42
2024/01/27 05:06:52;;;;;;;24.52;3.35;;;2.60;99.90;;;;;;6339358;22;20380;-42
2024/01/27 05:09:18;;;;;;;23.17;2.95;;;2.50;99.90;;;;;;6339308;22;20544;-42
2024/01/27 05:11:45;;;;;;;23.95;3.92;;;2.40;99.90;;;;;;6339288;22;20018;-41
2024/01/27 05:14:11;;;;;;;31.92;3.88;;;2.60;99.90;;;;;;6339346;22;20011;-42
2024/01/27 05:16:37;;;;;;;21.70;2.90;;;2.10;99.90;;;;;;6339234;22;20097;-42
2024/01/27 05:19:03;;;;;;;29.48;3.33;;;2.00;99.90;;;;;;6311641;22;20046;-42
2024/01/27 05:21:29;;;;;;;26.48;4.68;;;1.80;99.90;;;;;;6339219;22;20023;-42
2024/01/27 05:23:57;;;;;;;25.27;3.20;;;1.80;99.90;;;;;;6339146;22;20015;-42
2024/01/27 05:26:23;;;;;;;20.63;2.70;;;1.80;99.90;;;;;;6311592;22;20067;-42
2024/01/27 05:28:48;;;;;;;17.90;2.72;;;1.80;99.90;;;;;;6311637;22;20090;-42
2024/01/27 05:31:15;;;;;;;23.27;3.10;;;1.70;99.90;;;;;;6260257;22;20018;-42
2024/01/27 05:33:42;;;;;;;22.55;3.15;;;1.70;99.90;;;;;;6311524;22;20342;-42
2024/01/27 05:36:08;;;;;;;29.67;3.65;;;1.70;99.90;;;;;;6339117;22;20018;-42
2024/01/27 05:38:33;;;;;;;23.52;3.30;;;1.60;99.90;;;;;;6311466;22;20072;-42
2024/01/27 05:41:03;;;;;;;26.27;3.50;;;1.60;99.90;;;;;;6339695;22;20050;-42
2024/01/27 05:43:28;;;;;;;25.30;5.20;;;1.60;99.90;;;;;;6338763;22;20415;-41
2024/01/27 05:45:54;;;;;;;27.13;3.58;;;1.70;99.90;;;;;;6339138;22;20026;-42
2024/01/27 05:48:20;;;;;;;18.10;2.47;;;1.70;99.90;;;;;;6340799;22;20019;-42
2024/01/27 05:50:58;;;;;;;30.95;5.07;;;1.80;99.90;;;;;;6341869;22;20019;-42
2024/01/27 05:53:25;;;;;;;27.98;3.70;;;1.80;99.90;;;;;;6313805;22;20093;-42
2024/01/27 05:55:50;;;;;;;23.35;4.63;;;1.90;99.90;;;;;;6287969;22;20022;-42
2024/01/27 05:58:16;;;;;;;26.58;4.85;;;1.90;99.90;;;;;;6340733;22;20071;-42
2024/01/27 06:00:45;;;;;;;26.15;2.83;;;2.00;99.90;;;;;;6313207;22;20018;-42
2024/01/27 06:03:11;;;;;;;31.48;4.88;;;2.10;99.90;;;;;;6313185;22;20015;-42
2024/01/27 06:05:37;;;;;;;24.83;3.47;;;2.20;99.90;;;;;;6313242;22;20021;-43
2024/01/27 06:08:04;;;;;;;23.75;2.95;;;2.10;99.90;;;;;;6340744;22;20081;-42
2024/01/27 06:10:31;;;;;;;33.35;3.85;;;2.10;99.90;;;;;;6314092;22;20026;-42
2024/01/27 06:12:57;;;;;;;25.48;3.33;;;1.90;99.90;;;;;;6340673;22;20015;-42
2024/01/27 06:15:22;;;;;;;26.85;3.33;;;1.90;99.90;;;;;;6314099;22;20015;-42
2024/01/27 06:17:48;;;;;;;20.48;3.33;;;1.80;99.90;;;;;;6341249;22;20307;-42
2024/01/27 06:20:16;;;;;;;25.30;3.13;;;1.80;99.90;;;;;;6287497;22;20018;-42
2024/01/27 06:22:42;;;;;;;20.23;3.65;;;1.60;99.90;;;;;;6340502;22;20423;-43
2024/01/27 06:25:09;;;;;;;21.25;4.15;;;1.50;99.90;;;;;;6341249;22;20064;-42
2024/01/27 06:27:34;;;;;;;20.17;3.30;;;1.40;99.90;;;;;;6341184;22;20017;-41
2024/01/27 06:30:00;;;;;;;22.77;3.03;;;1.20;99.90;;;;;;6340083;22;20101;-42
2024/01/27 06:32:25;;;;;;;29.03;3.63;;;1.10;99.90;;;;;;6340473;22;20014;-43
2024/01/27 06:34:51;;;;;;;35.95;5.28;;;1.10;99.90;;;;;;6313094;22;20067;-42
2024/01/27 06:37:17;;;;;;;22.00;3.58;;;1.10;99.90;;;;;;6287907;22;20072;-42
2024/01/27 06:39:42;;;;;;;24.63;4.57;;;1.20;99.90;;;;;;6312959;22;20015;-42
2024/01/27 06:42:08;;;;;;;23.67;4.60;;;1.00;99.90;;;;;;6340936;22;20023;-42
2024/01/27 06:44:34;;;;;;;24.73;3.70;;;1.00;99.90;;;;;;6286945;22;20442;-42
2024/01/27 06:47:00;;;;;;;23.87;4.93;;;1.20;99.90;;;;;;6341422;22;20019;-42
2024/01/27 06:49:25;;;;;;;35.20;4.18;;;1.10;99.90;;;;;;6313097;22;20015;-42
2024/01/27 06:51:51;;;;;;;34.90;4.13;;;1.20;99.90;;;;;;6340269;22;20019;-43
2024/01/27 06:54:17;;;;;;;30.63;5.32;;;1.70;99.90;;;;;;6313675;22;20169;-42
2024/01/27 06:56:42;;;;;;;31.80;4.53;;;1.30;99.90;;;;;;6340985;22;20422;-42
2024/01/27 06:59:08;;;;;;;33.70;6.23;;;1.40;99.90;;;;;;6313210;22;20041;-42
2024/01/27 07:01:33;;;;;;;28.48;6.22;;;1.40;99.90;;;;;;6340227;22;20093;-42
2024/01/27 07:03:59;;;;;;;35.53;4.95;;;1.50;99.90;;;;;;6312345;22;20022;-42
2024/01/27 07:06:27;;;;;;;29.50;4.82;;;1.50;99.90;;;;;;6261449;22;20018;-42
2024/01/27 07:09:09;;;;;;;30.87;5.53;;;1.50;99.90;;;;;;6340891;22;20436;-42
2024/01/27 07:11:52;;;;;;;31.90;3.70;;;1.40;99.90;;;;;;6335680;22;20015;-42
2024/01/27 07:14:37;;;;;;;27.45;4.20;;;1.40;99.90;;;;;;6338078;22;20025;-41
2024/01/27 07:17:06;;;;;;;30.05;4.05;;;1.40;99.90;;;;;;6271502;22;20470;-42
2024/01/27 07:19:32;;;;;;;27.35;4.63;;;1.30;99.90;;;;;;6340091;22;20019;-42
2024/01/27 07:21:59;;;;;;;22.50;4.32;;;1.30;99.90;;;;;;6312492;22;20019;-42
2024/01/27 07:24:26;;;;;;;24.20;4.20;;;1.40;99.90;;;;;;6310387;22;20011;-42
2024/01/27 07:26:51;;;;;;;35.40;4.88;;;1.40;99.90;;;;;;6339783;22;20022;-42
2024/01/27 07:29:17;;;;;;;34.10;5.65;;;1.30;99.90;;;;;;6312347;22;20015;-41
2024/01/27 07:31:43;;;;;;;26.33;4.90;;;1.30;99.90;;;;;;6312350;22;20022;-42
2024/01/27 07:34:08;;;;;;;25.17;3.90;;;1.30;99.90;;;;;;6340448;22;20078;-43
2024/01/27 07:36:34;;;;;;;27.08;4.45;;;1.40;99.90;;;;;;6311930;22;20015;-42
2024/01/27 07:39:00;;;;;;;16.15;3.40;;;1.30;99.90;;;;;;6311858;22;20022;-42
2024/01/27 07:41:25;;;;;;;28.70;4.40;;;1.30;99.90;;;;;;6312752;22;20049;-42
2024/01/27 07:43:51;;;;;;;34.35;6.22;;;1.40;99.90;;;;;;6339369;22;20014;-42
2024/01/27 07:46:21;;;;;;;18.23;4.90;;;1.50;99.90;;;;;;6340118;22;20099;-42
2024/01/27 07:48:48;;;;;;;32.00;5.57;;;1.50;99.90;;;;;;6339705;22;20025;-43
2024/01/27 07:51:13;;;;;;;22.70;4.13;;;1.50;99.90;;;;;;6311930;22;20080;-42
2024/01/27 07:53:57;;;;;;;37.88;6.00;;;1.50;99.90;;;;;;6339606;22;20018;-43
2024/01/27 07:56:26;;;;;;;23.35;4.32;;;1.50;99.90;;;;;;6288354;22;20374;-42
2024/01/27 07:58:53;;;;;;;29.80;5.82;;;1.50;99.90;;;;;;6339514;22;20019;-42
2024/01/27 08:01:19;;;;;;;32.67;5.25;;;1.50;99.90;;;;;;6339686;22;20384;-41
2024/01/27 08:03:45;;;;;;;32.95;4.68;;;1.50;99.90;;;;;;6340467;22;20319;-42
2024/01/27 08:06:17;;;;;;;32.90;5.07;;;1.50;99.90;;;;;;6312187;22;20023;-43
2024/01/27 08:08:47;;;;;;;26.03;5.47;;;1.50;99.90;;;;;;6339983;22;20381;-41
2024/01/27 08:11:13;;;;;;;29.75;4.80;;;1.50;99.90;;;;;;6340491;22;20011;-42
2024/01/27 08:13:39;;;;;;;30.23;5.00;;;1.50;99.90;;;;;;6339519;22;20034;-42
2024/01/27 08:16:05;;;;;;;40.42;5.45;;;1.60;99.90;;;;;;6286390;22;20435;-42
2024/01/27 08:18:31;;;;;;;28.17;5.80;;;1.60;99.90;;;;;;6339767;22;20059;-41
2024/01/27 08:20:57;;;;;;;30.30;5.57;;;1.70;99.90;;;;;;6339438;22;20437;-41
2024/01/27 08:23:23;;;;;;;22.65;5.00;;;1.60;99.90;;;;;;6312042;22;20074;-42
2024/01/27 08:25:52;;;;;;;38.20;5.38;;;1.80;99.90;;;;;;6311811;22;20440;-42
2024/01/27 08:28:18;;;;;;;26.60;5.32;;;1.60;99.90;;;;;;6312136;22;20015;-42
2024/01/27 08:30:44;;;;;;;29.77;6.18;;;1.60;99.90;;;;;;6285550;22;20350;-42
2024/01/27 08:33:10;;;;;;;37.63;5.68;;;1.60;99.90;;;;;;6339997;22;20087;-42
2024/01/27 08:35:35;;;;;;;22.77;4.38;;;1.60;99.90;;;;;;6285941;22;20021;-41
2024/01/27 08:38:03;;;;;;;36.00;6.00;;;1.70;99.90;;;;;;6339353;22;20334;-43
2024/01/27 08:40:29;;;;;;;24.98;5.13;;;1.70;99.90;;;;;;6339549;22;20028;-43
2024/01/27 08:42:55;;;;;;;27.02;5.68;;;1.80;99.90;;;;;;6306210;22;20094;-42
2024/01/27 08:45:20;;;;;;;40.08;5.35;;;1.90;99.90;;;;;;6306063;22;20027;-42
2024/01/27 08:47:46;;;;;;;33.13;5.90;;;2.00;99.90;;;;;;6308469;22;20019;-42
2024/01/27 08:50:12;;;;;;;43.55;6.65;;;2.10;99.90;;;;;;6308122;22;20033;-42
2024/01/27 08:52:38;;;;;;;31.40;6.00;;;2.10;99.90;;;;;;6306530;22;20098;-42
2024/01/27 08:55:04;;;;;;;30.00;5.70;;;2.20;99.90;;;;;;6281153;22;20015;-42
2024/01/27 08:57:29;;;;;;;30.90;5.90;;;2.30;99.90;;;;;;6308711;22;20054;-42
2024/01/27 08:59:55;;;;;;;35.72;6.47;;;2.40;99.90;;;;;;6280609;22;20190;-43
2024/01/27 09:02:21;;;;;;;24.92;6.47;;;2.40;99.90;;;;;;6256219;22;20406;-42
2024/01/27 09:04:47;;;;;;;25.88;6.55;;;2.50;99.90;;;;;;6308447;22;20019;-42
2024/01/27 09:07:12;;;;;;;35.63;5.53;;;2.80;99.90;;;;;;6307957;22;20272;-42
2024/01/27 09:09:38;;;;;;;30.27;5.95;;;2.60;99.90;;;;;;6307979;22;20053;-42
2024/01/27 09:12:04;;;;;;;35.22;6.88;;;2.70;99.90;;;;;;6307930;22;20015;-42
2024/01/27 09:14:30;;;;;;;29.58;6.05;;;2.70;99.90;;;;;;6307830;22;20096;-42
2024/01/27 09:16:56;;;;;;;22.60;5.35;;;2.80;99.90;;;;;;6307915;22;20347;-42
2024/01/27 09:19:22;;;;;;;26.35;6.22;;;2.90;99.90;;;;;;6280575;22;20022;-41
2024/01/27 09:21:48;;;;;;;61.20;7.90;;;2.90;99.90;;;;;;6306483;22;20053;-42
2024/01/27 09:24:14;;;;;;;28.33;5.50;;;3.10;99.90;;;;;;6309343;22;20346;-42
2024/01/27 09:26:40;;;;;;;26.73;6.07;;;3.20;99.90;;;;;;6309832;22;20019;-42
2024/01/27 09:29:06;;;;;;;27.60;6.45;;;3.30;99.90;;;;;;6309235;22;20327;-42
2024/01/27 09:31:32;;;;;;;23.63;6.30;;;3.30;99.90;;;;;;6282607;22;20019;-42
2024/01/27 09:33:57;;;;;;;34.95;7.57;;;3.40;99.90;;;;;;6308360;22;20021;-42
2024/01/27 09:36:26;;;;;;;22.88;5.60;;;3.50;99.90;;;;;;6309652;22;20015;-42
2024/01/27 09:38:52;;;;;;;37.80;6.45;;;3.50;99.90;;;;;;6310796;22;20011;-42
2024/01/27 09:41:21;;;;;;;24.27;6.32;;;3.60;99.90;;;;;;6309951;22;20508;-42
2024/01/27 09:43:47;;;;;;;26.10;6.97;;;3.70;99.90;;;;;;6308154;22;20094;-42
2024/01/27 09:46:15;;;;;;;26.23;6.22;;;3.80;99.90;;;;;;6308227;22;20136;-42
2024/01/27 09:48:41;;;;;;;26.02;6.28;;;3.90;99.90;;;;;;6308179;22;20015;-41
2024/01/27 09:51:09;;;;;;;18.70;5.88;;;4.10;99.90;;;;;;6309694;22;20081;-42
2024/01/27 09:53:35;;;;;;;26.77;5.57;;;4.10;99.90;;;;;;6309163;22;20334;-41
2024/01/27 09:56:01;;;;;;;36.70;7.70;;;4.10;99.90;;;;;;6308096;22;20102;-41
2024/01/27 09:58:29;;;;;;;30.05;6.82;;;4.20;99.90;;;;;;6308100;22;20016;-41
2024/01/27 10:00:56;;;;;;;23.60;6.25;;;4.30;99.90;;;;;;6309520;22;20082;-42
2024/01/27 10:03:26;;;;;;;19.35;6.72;;;4.40;99.90;;;;;;6307898;22;20050;-41
2024/01/27 10:05:54;;;;;;;25.65;7.30;;;4.40;99.90;;;;;;6309550;22;20016;-42
2024/01/27 10:08:21;;;;;;;22.83;6.00;;;4.50;99.90;;;;;;6307992;22;20443;-41
2024/01/27 10:10:47;;;;;;;24.85;7.20;;;4.60;99.90;;;;;;6309785;22;20019;-42
2024/01/27 10:13:26;;;;;;;24.33;5.85;;;4.80;99.90;;;;;;6308058;22;20038;-42
2024/01/27 10:16:04;;;;;;;18.75;4.85;;;4.90;99.90;;;;;;6309537;22;20011;-42
2024/01/27 10:18:31;;;;;;;29.40;6.75;;;5.00;99.90;;;;;;6310565;22;20018;-41
2024/01/27 10:20:57;;;;;;;21.10;5.47;;;5.00;99.90;;;;;;6308696;22;20011;-41
2024/01/27 10:23:23;;;;;;;29.58;7.30;;;5.10;99.90;;;;;;6309265;22;20015;-41
2024/01/27 10:25:50;;;;;;;26.45;6.63;;;5.20;99.90;;;;;;6307867;22;20019;-42
2024/01/27 10:28:16;;;;;;;28.70;7.25;;;5.20;99.90;;;;;;6309289;22;20111;-42
2024/01/27 10:30:48;;;;;;;31.75;6.85;;;5.30;99.90;;;;;;6309261;22;20023;-42
2024/01/27 10:33:14;;;;;;;20.63;6.38;;;5.30;99.90;;;;;;6257141;22;20098;-41
2024/01/27 10:35:40;;;;;;;31.70;6.80;;;5.30;99.90;;;;;;6309232;22;20379;-41
2024/01/27 10:38:07;;;;;;;29.02;7.00;;;5.30;99.90;;;;;;6308870;22;20454;-41
2024/01/27 10:40:35;;;;;;;24.05;6.85;;;5.40;99.90;;;;;;6309297;22;20089;-42
2024/01/27 10:43:06;;;;;;;20.75;6.50;;;5.40;99.90;;;;;;6307082;22;20015;-42
2024/01/27 10:45:40;;;;;;;30.67;6.60;;;5.50;99.90;;;;;;6308075;22;20016;-41
2024/01/27 10:48:07;;;;;;;24.15;5.70;;;5.50;99.90;;;;;;6309602;22;20021;-42
2024/01/27 10:50:37;;;;;;;30.45;7.15;;;5.50;99.90;;;;;;6307695;22;20087;-41
2024/01/27 10:53:20;;;;;;;28.85;6.55;;;5.70;99.90;;;;;;6308316;22;20015;-41
2024/01/27 10:55:47;;;;;;;25.92;6.90;;;5.70;99.90;;;;;;6309195;22;20019;-42
2024/01/27 10:58:14;;;;;;;20.75;5.28;;;5.80;99.90;;;;;;6307844;22;20458;-42
2024/01/27 11:00:43;;;;;;;26.55;4.13;;;5.90;99.90;;;;;;6307080;22;20069;-42
2024/01/27 11:03:11;;;;;;;20.17;4.45;;;6.10;99.90;;;;;;6308458;22;20012;-42
2024/01/27 11:05:37;;;;;;;19.15;3.88;;;6.30;99.90;;;;;;6281769;22;20026;-42
2024/01/27 11:08:06;;;;;;;23.00;3.75;;;6.50;99.90;;;;;;6307488;22;20019;-41
2024/01/27 11:10:35;;;;;;;22.08;4.50;;;6.50;99.90;;;;;;6281720;22;20069;-40
2024/01/27 11:13:05;;;;;;;22.88;3.90;;;6.60;99.90;;;;;;6308908;22;20011;-41
2024/01/27 11:15:32;;;;;;;17.88;2.80;;;6.70;99.90;;;;;;6308895;22;20019;-42
2024/01/27 11:18:03;;;;;;;20.52;3.78;;;6.70;99.90;;;;;;6307404;22;20019;-42
2024/01/27 11:20:31;;;;;;;24.50;4.68;;;6.80;99.90;;;;;;6309615;22;20392;-40
2024/01/27 11:23:11;;;;;;;18.30;4.05;;;6.80;99.90;;;;;;6308605;22;20058;-41
2024/01/27 11:25:37;;;;;;;15.43;2.05;;;6.80;99.90;;;;;;6308759;22;20015;-41
2024/01/27 11:28:13;;;;;;;17.67;3.17;;;6.80;99.90;;;;;;6308888;22;20026;-41
2024/01/27 11:30:39;;;;;;;24.17;3.97;;;6.80;99.90;;;;;;6308918;22;20304;-41
2024/01/27 11:33:06;;;;;;;21.63;3.92;;;6.90;99.90;;;;;;6308890;22;20011;-41
2024/01/27 11:35:32;;;;;;;20.65;3.55;;;7.00;99.90;;;;;;6281771;22;20022;-41
2024/01/27 11:37:57;;;;;;;19.48;3.65;;;7.00;99.90;;;;;;6280859;22;20015;-41
2024/01/27 11:40:23;;;;;;;19.00;3.83;;;7.10;99.90;;;;;;6308393;22;20026;-40
2024/01/27 11:42:59;;;;;;;20.85;4.20;;;7.00;99.90;;;;;;6306439;22;20410;-41
2024/01/27 11:45:27;;;;;;;26.52;5.35;;;7.00;99.90;;;;;;6308863;22;20015;-40
2024/01/27 11:47:53;;;;;;;15.07;4.30;;;7.00;99.90;;;;;;6307861;22;20052;-42
2024/01/27 11:50:20;;;;;;;20.83;4.97;;;7.00;99.90;;;;;;6308312;22;20068;-41
2024/01/27 11:52:47;;;;;;;19.33;4.20;;;7.00;99.90;;;;;;6308430;22;20012;-41
2024/01/27 11:55:15;;;;;;;25.52;5.03;;;7.10;99.90;;;;;;6308146;22;20019;-40
2024/01/27 11:57:41;;;;;;;28.08;4.90;;;7.20;99.90;;;;;;6308274;22;20491;-39
2024/01/27 12:00:09;;;;;;;26.95;4.93;;;7.20;99.90;;;;;;6306985;22;20015;-41
2024/01/27 12:02:35;;;;;;;27.88;4.57;;;7.30;99.90;;;;;;6281082;22;20104;-41
2024/01/27 12:05:01;;;;;;;20.95;4.28;;;7.30;99.90;;;;;;6308338;22;20015;-41
2024/01/27 12:07:27;;;;;;;21.50;5.10;;;7.30;99.90;;;;;;6307072;22;20052;-40
2024/01/27 12:09:53;;;;;;;15.65;3.42;;;7.40;99.90;;;;;;6281511;22;20019;-41
2024/01/27 12:12:19;;;;;;;19.17;3.72;;;7.40;99.90;;;;;;6307722;22;20079;-41
2024/01/27 12:14:48;;;;;;;16.55;4.10;;;7.30;99.90;;;;;;6307295;22;20019;-41
2024/01/27 12:17:14;;;;;;;20.02;4.72;;;7.40;99.90;;;;;;6308178;22;20028;-41
2024/01/27 12:19:50;;;;;;;17.33;4.53;;;7.40;99.90;;;;;;6308101;22;20320;-41
2024/01/27 12:22:29;;;;;;;18.58;3.53;;;7.40;99.90;;;;;;6306966;22;20027;-40
2024/01/27 12:25:07;;;;;;;17.98;3.58;;;7.40;99.90;;;;;;6307343;22;20433;-42
2024/01/27 12:27:33;;;;;;;26.63;3.58;;;7.50;99.90;;;;;;6308603;22;20029;-44
2024/01/27 12:30:01;;;;;;;18.00;3.75;;;7.50;99.90;;;;;;6306480;22;20503;-43
2024/01/27 12:32:26;;;;;;;15.95;3.67;;;7.50;99.90;;;;;;6308149;22;20016;-41
2024/01/27 12:34:52;;;;;;;21.25;3.72;;;7.50;99.90;;;;;;6308125;22;20037;-42
2024/01/27 12:37:21;;;;;;;19.65;4.07;;;7.50;99.90;;;;;;6306637;22;20019;-44
2024/01/27 12:39:47;;;;;;;26.60;5.13;;;7.50;99.90;;;;;;6308167;22;20026;-43
2024/01/27 12:42:13;;;;;;;17.15;3.55;;;7.70;99.90;;;;;;6313870;22;20023;-43
2024/01/27 12:44:42;;;;;;;26.90;4.28;;;8.10;99.90;;;;;;6311257;22;20434;-43